createdAt,value
2022-07-27T00:04:57.202Z,16.94
2022-07-27T00:15:03.022Z,16.85
2022-07-27T00:25:10.112Z,16.74
2022-07-27T00:35:15.910Z,16.62
2022-07-27T00:45:21.714Z,16.44
2022-07-27T00:55:27.687Z,16.21
2022-07-27T01:05:42.393Z,15.92
2022-07-27T01:15:49.895Z,15.65
2022-07-27T01:25:55.877Z,15.41
2022-07-27T01:36:01.659Z,15.22
2022-07-27T01:46:08.122Z,15.09
2022-07-27T01:56:14.608Z,14.98
2022-07-27T02:06:20.427Z,14.84
2022-07-27T02:16:26.340Z,14.70
2022-07-27T02:26:32.391Z,14.73
2022-07-27T02:36:38.154Z,14.83
2022-07-27T02:46:44.081Z,14.84
2022-07-27T02:56:50.262Z,14.78
2022-07-27T03:06:56.136Z,14.87
2022-07-27T03:17:02.216Z,14.84
2022-07-27T03:27:08.289Z,14.76
2022-07-27T03:37:15.296Z,14.85
2022-07-27T03:47:21.202Z,14.98
2022-07-27T03:57:27.025Z,15.10
2022-07-27T04:07:32.874Z,15.21
2022-07-27T04:17:54.737Z,15.80
2022-07-27T04:28:03.280Z,22.52
2022-07-27T04:38:09.088Z,28.22
2022-07-27T04:48:15.310Z,30.00
2022-07-27T04:58:21.210Z,28.96
2022-07-27T05:08:27.124Z,34.20
2022-07-27T05:18:33.002Z,36.76
2022-07-27T05:28:39.068Z,39.14
2022-07-27T05:38:45.030Z,36.06
2022-07-27T05:48:50.907Z,33.48
2022-07-27T05:58:56.993Z,36.63
2022-07-27T06:09:03.185Z,39.95
2022-07-27T06:19:09.175Z,44.27
2022-07-27T06:29:15.406Z,45.55
2022-07-27T06:39:21.707Z,46.38
2022-07-27T06:49:27.501Z,48.89
2022-07-27T06:59:43.365Z,50.48
2022-07-27T07:09:48.358Z,51.71
2022-07-27T07:19:54.149Z,51.37
2022-07-27T07:30:00.129Z,51.51
2022-07-27T07:50:37.307Z,54.41
2022-07-27T08:00:43.968Z,51.09
2022-07-27T08:10:49.884Z,49.01
2022-07-27T08:20:56.084Z,43.06
2022-07-27T08:31:02.133Z,37.98
2022-07-27T08:41:23.469Z,35.21
2022-07-27T08:51:30.181Z,32.80
2022-07-27T09:01:36.669Z,30.96
2022-07-27T09:11:42.746Z,30.07
2022-07-27T09:21:48.595Z,30.52
2022-07-27T09:31:54.768Z,30.85
2022-07-27T09:42:02.949Z,29.81
2022-07-27T09:52:09.937Z,28.76
2022-07-27T10:02:17.553Z,29.28
2022-07-27T10:12:24.070Z,28.73
2022-07-27T10:22:51.616Z,28.55
2022-07-27T10:32:57.485Z,26.52
2022-07-27T10:43:17.951Z,25.04
2022-07-27T10:53:55.009Z,24.68
2022-07-27T11:04:11.326Z,24.02
2022-07-27T11:14:18.804Z,23.56
2022-07-27T11:24:25.015Z,24.10
2022-07-27T11:34:32.532Z,24.46
2022-07-27T11:44:42.257Z,24.28
2022-07-27T11:54:53.412Z,24.31
2022-07-27T12:05:02.957Z,24.29
2022-07-27T12:25:45.059Z,25.21
2022-07-27T12:35:50.856Z,25.59
2022-07-27T12:45:57.495Z,25.84
2022-07-27T12:56:06.536Z,26.09
2022-07-27T13:06:13.289Z,25.55
2022-07-27T13:16:19.796Z,25.19
2022-07-27T13:26:25.762Z,25.00
2022-07-27T13:36:33.786Z,24.96
2022-07-27T13:46:39.684Z,24.69
2022-07-27T13:56:46.190Z,24.64
2022-07-27T14:06:51.947Z,24.76
2022-07-27T14:16:58.065Z,24.76
2022-07-27T14:27:04.007Z,24.67
2022-07-27T14:37:09.972Z,24.53
2022-07-27T14:47:16.125Z,24.49
2022-07-27T14:57:21.894Z,23.99
2022-07-27T15:07:28.064Z,23.54
2022-07-27T15:17:34.573Z,23.44
2022-07-27T15:27:44.331Z,23.29
2022-07-27T15:37:54.315Z,23.11
2022-07-27T15:48:01.120Z,22.94
2022-07-27T15:58:07.998Z,22.98
2022-07-27T16:08:15.019Z,22.64
2022-07-27T16:18:21.217Z,22.02
2022-07-27T16:28:28.961Z,21.79
2022-07-27T16:38:35.046Z,21.58
2022-07-27T16:48:45.107Z,21.45
2022-07-27T16:58:51.749Z,21.49
2022-07-27T17:08:57.801Z,21.45
2022-07-27T17:19:03.650Z,21.45
2022-07-27T17:29:09.611Z,21.28
2022-07-27T17:39:17.252Z,21.09
2022-07-27T17:49:23.131Z,20.88
2022-07-27T17:59:37.618Z,20.63
2022-07-27T18:09:44.544Z,20.76
2022-07-27T18:19:50.347Z,20.57
2022-07-27T18:29:56.282Z,20.11
2022-07-27T18:40:03.753Z,19.70
2022-07-27T18:50:11.017Z,19.37
2022-07-27T19:00:18.103Z,19.06
2022-07-27T19:10:25.252Z,18.77
2022-07-27T19:20:31.247Z,18.35
2022-07-27T19:30:38.801Z,17.83
2022-07-27T19:40:46.041Z,17.24
2022-07-27T19:50:51.992Z,16.78
2022-07-27T20:00:58.385Z,16.54
2022-07-27T20:11:04.276Z,16.43
2022-07-27T20:21:22.503Z,16.37
2022-07-27T20:31:29.819Z,16.36
2022-07-27T20:41:36.026Z,16.32
2022-07-27T20:51:42.221Z,16.32
2022-07-27T21:01:48.099Z,16.19
2022-07-27T21:11:54.151Z,15.93
2022-07-27T21:22:00.218Z,15.76
2022-07-27T21:32:06.428Z,15.59
2022-07-27T21:42:12.414Z,15.36
2022-07-27T21:52:18.184Z,15.03
2022-07-27T22:02:27.520Z,14.77
2022-07-27T22:12:34.610Z,14.60
2022-07-27T22:22:40.479Z,14.56
2022-07-27T22:32:46.139Z,14.79
2022-07-27T22:42:52.075Z,14.58
2022-07-27T22:52:58.620Z,14.28
2022-07-27T23:03:04.443Z,14.02
2022-07-27T23:13:10.244Z,13.74
2022-07-27T23:23:16.891Z,13.65
2022-07-27T23:33:22.961Z,13.63
2022-07-27T23:43:29.270Z,13.39
2022-07-27T23:53:34.976Z,13.02
